createdAt,value
2022-09-01T00:00:02.709Z,20.10
2022-09-01T00:02:33.522Z,20.10
2022-09-01T00:05:00.694Z,20.00
2022-09-01T00:07:32.078Z,20.00
2022-09-01T00:10:00.353Z,20.00
2022-09-01T00:12:28.908Z,20.00
2022-09-01T00:14:56.772Z,20.00
2022-09-01T00:17:25.564Z,19.90
2022-09-01T00:19:53.633Z,19.90
2022-09-01T00:22:21.768Z,19.90
2022-09-01T00:24:49.840Z,19.90
2022-09-01T00:27:17.640Z,19.80
2022-09-01T00:29:45.059Z,19.80
2022-09-01T00:32:12.348Z,19.80
2022-09-01T00:34:40.217Z,19.80
2022-09-01T00:37:08.033Z,19.80
2022-09-01T00:39:35.904Z,19.80
2022-09-01T00:42:03.237Z,19.80
2022-09-01T00:44:31.391Z,19.80
2022-09-01T00:47:00.041Z,19.80
2022-09-01T00:49:40.029Z,19.80
2022-09-01T00:52:15.908Z,19.70
2022-09-01T00:54:50.524Z,19.70
2022-09-01T00:57:17.857Z,19.70
2022-09-01T00:59:57.151Z,19.70
2022-09-01T01:02:25.609Z,19.70
2022-09-01T01:04:52.913Z,19.80
2022-09-01T01:07:23.110Z,19.80
2022-09-01T01:09:51.581Z,19.80
2022-09-01T01:12:21.447Z,19.70
2022-09-01T01:14:50.875Z,19.70
2022-09-01T01:17:22.456Z,19.70
2022-09-01T01:20:14.115Z,19.70
2022-09-01T01:23:06.101Z,19.70
2022-09-01T01:25:42.320Z,19.70
2022-09-01T01:28:15.984Z,19.70
2022-09-01T01:30:51.551Z,19.70
2022-09-01T01:33:28.986Z,19.70
2022-09-01T01:35:57.886Z,19.70
2022-09-01T01:38:28.063Z,19.70
2022-09-01T01:40:56.455Z,19.70
2022-09-01T01:43:26.581Z,19.70
2022-09-01T01:45:59.490Z,19.70
2022-09-01T01:48:34.827Z,19.70
2022-09-01T01:51:04.964Z,19.70
2022-09-01T01:53:34.063Z,19.70
2022-09-01T01:56:02.399Z,19.70
2022-09-01T01:58:35.038Z,19.60
2022-09-01T02:01:10.897Z,19.60
2022-09-01T02:03:39.053Z,19.60
2022-09-01T02:06:10.034Z,19.60
2022-09-01T02:08:39.410Z,19.60
2022-09-01T02:11:07.874Z,19.60
2022-09-01T02:13:35.317Z,19.60
2022-09-01T02:16:13.527Z,19.60
2022-09-01T02:18:48.278Z,19.60
2022-09-01T02:21:19.734Z,19.50
2022-09-01T02:24:01.251Z,19.50
2022-09-01T02:26:40.846Z,19.50
2022-09-01T02:29:18.287Z,19.50
2022-09-01T02:31:47.817Z,19.40
2022-09-01T02:34:15.458Z,19.40
2022-09-01T02:36:48.104Z,19.40
2022-09-01T02:39:23.236Z,19.40
2022-09-01T02:41:51.186Z,19.40
2022-09-01T02:44:23.872Z,19.40
2022-09-01T02:46:52.003Z,19.40
2022-09-01T02:49:29.908Z,19.40
2022-09-01T02:52:02.089Z,19.40
2022-09-01T02:54:32.688Z,19.40
2022-09-01T02:57:00.434Z,19.40
2022-09-01T02:59:29.956Z,19.40
2022-09-01T03:02:00.984Z,19.40
2022-09-01T03:04:29.249Z,19.40
2022-09-01T03:06:59.086Z,19.40
2022-09-01T03:09:27.295Z,19.40
2022-09-01T03:11:55.289Z,19.40
2022-09-01T03:14:25.032Z,19.40
2022-09-01T03:16:52.771Z,19.40
2022-09-01T03:19:20.324Z,19.40
2022-09-01T03:21:49.241Z,19.40
2022-09-01T03:24:22.657Z,19.40
2022-09-01T03:26:52.814Z,19.40
2022-09-01T03:29:21.215Z,19.40
2022-09-01T03:31:48.957Z,19.40
2022-09-01T03:34:19.077Z,19.30
2022-09-01T03:36:51.271Z,19.40
2022-09-01T03:39:26.717Z,19.40
2022-09-01T03:41:55.474Z,19.40
2022-09-01T03:44:22.586Z,19.30
2022-09-01T03:46:49.664Z,19.30
2022-09-01T03:49:25.007Z,19.30
2022-09-01T03:51:55.402Z,19.30
2022-09-01T03:54:25.827Z,19.30
2022-09-01T03:56:53.899Z,19.30
2022-09-01T03:59:22.763Z,19.30
2022-09-01T04:01:51.374Z,19.30
2022-09-01T04:04:18.500Z,19.30
2022-09-01T04:06:46.395Z,19.30
2022-09-01T04:09:14.362Z,19.40
2022-09-01T04:11:46.952Z,19.30
2022-09-01T04:14:16.451Z,19.30
2022-09-01T04:17:04.874Z,19.30
2022-09-01T04:19:37.087Z,19.30
2022-09-01T04:22:05.288Z,19.40
2022-09-01T04:24:45.986Z,19.40
2022-09-01T04:27:15.102Z,19.30
2022-09-01T04:29:43.068Z,19.30
2022-09-01T04:32:13.272Z,19.40
2022-09-01T04:34:50.071Z,19.30
2022-09-01T04:37:23.741Z,19.40
2022-09-01T04:39:57.303Z,19.40
2022-09-01T04:42:27.432Z,19.40
2022-09-01T04:44:57.789Z,19.40
2022-09-01T04:47:35.379Z,19.40
2022-09-01T04:50:14.409Z,19.40
2022-09-01T04:52:47.916Z,19.40
2022-09-01T04:55:30.551Z,19.40
2022-09-01T04:58:01.425Z,19.40
2022-09-01T05:00:32.418Z,19.40
2022-09-01T05:03:06.307Z,19.40
2022-09-01T05:06:17.933Z,19.40
2022-09-01T05:08:58.395Z,19.50
2022-09-01T05:11:43.475Z,19.50
2022-09-01T05:14:21.523Z,19.50
2022-09-01T05:16:51.546Z,19.50
2022-09-01T05:19:21.166Z,19.50
2022-09-01T05:21:49.755Z,19.50
2022-09-01T05:24:21.854Z,19.60
2022-09-01T05:26:51.114Z,19.50
2022-09-01T05:29:19.276Z,19.60
2022-09-01T05:31:50.303Z,19.60
2022-09-01T05:34:27.210Z,19.60
2022-09-01T05:36:56.337Z,19.60
2022-09-01T05:39:25.094Z,19.60
2022-09-01T05:41:54.040Z,19.70
2022-09-01T05:44:25.918Z,19.70
2022-09-01T05:46:58.433Z,19.70
2022-09-01T05:49:26.972Z,19.70
2022-09-01T05:51:59.288Z,19.70
2022-09-01T05:54:29.334Z,19.80
2022-09-01T05:57:12.713Z,19.80
2022-09-01T05:59:54.493Z,19.80
2022-09-01T06:02:27.413Z,19.90
2022-09-01T06:04:57.426Z,19.90
2022-09-01T06:07:31.155Z,20.00
2022-09-01T06:10:01.287Z,20.00
2022-09-01T06:12:29.458Z,20.00
2022-09-01T06:14:58.131Z,20.10
2022-09-01T06:17:27.104Z,20.10
2022-09-01T06:19:59.034Z,20.10
2022-09-01T06:22:28.639Z,20.20
2022-09-01T06:25:02.253Z,20.20
2022-09-01T06:27:34.763Z,20.30
2022-09-01T06:30:03.082Z,20.30
2022-09-01T06:32:38.636Z,20.30
2022-09-01T06:35:09.182Z,20.40
2022-09-01T06:37:40.053Z,20.40
2022-09-01T06:40:17.328Z,20.50
2022-09-01T06:42:47.279Z,20.50
2022-09-01T06:45:17.852Z,20.50
2022-09-01T06:47:47.402Z,20.60
2022-09-01T06:51:14.912Z,20.60
2022-09-01T06:55:59.644Z,20.60
2022-09-01T06:58:26.714Z,20.70
2022-09-01T07:00:54.851Z,20.60
2022-09-01T07:03:25.108Z,20.70
2022-09-01T07:09:46.939Z,20.70
2022-09-01T07:12:30.486Z,20.70
2022-09-01T07:17:52.621Z,20.80
2022-09-01T07:20:25.945Z,20.80
2022-09-01T07:23:04.501Z,20.90
2022-09-01T07:28:39.970Z,20.90
2022-09-01T07:39:48.671Z,21.10
2022-09-01T07:42:31.579Z,20.90
2022-09-01T07:47:19.537Z,21.20
2022-09-01T07:51:42.129Z,21.30
2022-09-01T07:54:14.039Z,21.30
2022-09-01T07:56:42.170Z,21.30
2022-09-01T07:59:15.387Z,21.40
2022-09-01T08:02:18.853Z,21.40
2022-09-01T08:04:49.108Z,21.50
2022-09-01T08:07:18.458Z,21.50
2022-09-01T08:09:45.877Z,21.50
2022-09-01T08:12:15.872Z,21.60
2022-09-01T08:17:57.057Z,21.70
2022-09-01T08:20:26.687Z,21.80
2022-09-01T08:23:00.190Z,21.90
2022-09-01T08:25:33.610Z,22.00
2022-09-01T08:28:02.496Z,22.10
2022-09-01T08:30:33.063Z,22.20
2022-09-01T08:33:18.053Z,22.30
2022-09-01T08:35:49.382Z,22.40
2022-09-01T08:38:17.895Z,22.50
2022-09-01T08:40:56.303Z,22.60
2022-09-01T08:43:44.900Z,22.70
2022-09-01T08:46:29.538Z,22.80
2022-09-01T08:52:11.216Z,23.00
2022-09-01T08:54:47.596Z,23.10
2022-09-01T08:57:27.645Z,23.20
2022-09-01T09:00:16.260Z,23.30
2022-09-01T09:03:07.714Z,23.40
2022-09-01T09:05:43.452Z,23.60
2022-09-01T09:08:33.204Z,23.70
2022-09-01T09:11:03.941Z,23.80
2022-09-01T09:14:11.447Z,23.80
2022-09-01T09:16:44.954Z,23.90
2022-09-01T09:19:17.767Z,24.00
2022-09-01T09:21:50.356Z,24.00
2022-09-01T09:24:56.674Z,24.10
2022-09-01T09:27:32.514Z,24.10
2022-09-01T09:30:09.551Z,24.20
2022-09-01T09:33:24.927Z,24.40
2022-09-01T09:35:48.049Z,24.60
2022-09-01T09:38:21.668Z,24.90
2022-09-01T09:41:17.810Z,25.10
2022-09-01T09:43:52.229Z,25.40
2022-09-01T09:46:31.463Z,25.70
2022-09-01T09:49:35.939Z,26.00
2022-09-01T09:52:08.407Z,26.30
2022-09-01T09:54:38.329Z,26.70
2022-09-01T09:57:09.032Z,26.90
2022-09-01T09:59:57.692Z,27.30
2022-09-01T10:02:36.488Z,27.60
2022-09-01T10:05:30.317Z,28.00
2022-09-01T10:07:58.522Z,28.40
2022-09-01T10:10:41.399Z,28.60
2022-09-01T10:13:13.890Z,28.90
2022-09-01T10:15:49.191Z,29.20
2022-09-01T10:18:31.515Z,29.50
2022-09-01T10:21:04.544Z,29.70
2022-09-01T10:23:35.088Z,29.80
2022-09-01T10:26:09.510Z,30.00
2022-09-01T10:29:00.214Z,30.10
2022-09-01T10:31:32.473Z,30.20
2022-09-01T10:34:05.553Z,30.40
2022-09-01T10:36:35.742Z,30.40
2022-09-01T10:39:06.484Z,30.30
2022-09-01T10:42:00.014Z,30.00
2022-09-01T10:44:39.277Z,29.80
2022-09-01T10:47:30.274Z,29.50
2022-09-01T10:49:59.086Z,29.10
2022-09-01T10:52:43.495Z,28.70
2022-09-01T10:55:25.245Z,28.50
2022-09-01T11:01:48.386Z,27.90
2022-09-01T11:04:41.115Z,27.70
2022-09-01T11:07:38.877Z,27.50
2022-09-01T11:10:33.298Z,27.30
2022-09-01T11:13:32.104Z,27.30
2022-09-01T11:16:50.216Z,27.30
2022-09-01T11:19:32.908Z,27.40
2022-09-01T11:22:22.105Z,27.50
2022-09-01T11:25:12.104Z,27.60
2022-09-01T11:27:49.179Z,27.60
2022-09-01T11:30:23.385Z,27.60
2022-09-01T11:32:58.552Z,27.50
2022-09-01T11:35:28.994Z,27.40
2022-09-01T11:38:03.425Z,27.20
2022-09-01T11:40:33.888Z,27.00
2022-09-01T11:43:12.663Z,26.80
2022-09-01T11:46:07.340Z,26.70
2022-09-01T11:48:36.865Z,26.50
2022-09-01T11:51:05.097Z,26.40
2022-09-01T11:53:32.643Z,26.30
2022-09-01T11:56:24.744Z,26.20
2022-09-01T11:58:52.745Z,26.10
2022-09-01T12:01:23.920Z,26.10
2022-09-01T12:03:53.299Z,26.20
2022-09-01T12:06:26.642Z,26.30
2022-09-01T12:08:59.388Z,26.40
2022-09-01T12:11:34.904Z,26.50
2022-09-01T12:14:11.640Z,26.50
2022-09-01T12:16:42.828Z,26.50
2022-09-01T12:19:31.329Z,26.50
2022-09-01T12:22:15.016Z,26.40
2022-09-01T12:24:47.808Z,26.30
2022-09-01T12:27:16.157Z,26.20
2022-09-01T12:29:46.059Z,26.10
2022-09-01T12:32:21.284Z,26.00
2022-09-01T12:35:05.635Z,26.00
2022-09-01T12:37:42.432Z,25.90
2022-09-01T12:40:32.117Z,25.80
2022-09-01T12:42:59.481Z,25.70
2022-09-01T12:45:56.529Z,25.70
2022-09-01T12:48:44.761Z,25.60
2022-09-01T12:51:29.249Z,25.50
2022-09-01T12:54:04.819Z,25.40
2022-09-01T12:56:39.363Z,25.30
2022-09-01T12:59:15.588Z,25.30
2022-09-01T13:01:45.058Z,25.20
2022-09-01T13:04:14.306Z,25.20
2022-09-01T13:06:42.347Z,25.10
2022-09-01T13:09:10.360Z,25.10
2022-09-01T13:14:25.718Z,25.00
2022-09-01T13:16:52.875Z,24.90
2022-09-01T13:19:27.398Z,24.90
2022-09-01T13:21:55.172Z,24.80
2022-09-01T13:24:27.894Z,24.80
2022-09-01T13:29:47.537Z,24.80
2022-09-01T13:32:18.296Z,24.80
2022-09-01T13:34:47.141Z,24.80
2022-09-01T13:37:14.250Z,24.80
2022-09-01T13:39:41.326Z,24.80
2022-09-01T13:42:08.528Z,24.80
2022-09-01T13:44:35.749Z,24.80
2022-09-01T13:50:11.035Z,24.80
2022-09-01T13:52:40.284Z,24.80
2022-09-01T13:55:10.566Z,24.90
2022-09-01T13:57:38.798Z,24.90
2022-09-01T14:00:13.034Z,24.90
2022-09-01T14:02:49.216Z,24.90
2022-09-01T14:05:22.458Z,24.90
2022-09-01T14:07:49.853Z,25.00
2022-09-01T14:10:17.980Z,25.00
2022-09-01T14:12:46.683Z,25.00
2022-09-01T14:15:17.586Z,25.00
2022-09-01T14:17:52.000Z,25.00
2022-09-01T14:20:21.877Z,25.00
2022-09-01T14:22:50.761Z,25.00
2022-09-01T14:25:19.545Z,25.00
2022-09-01T14:27:47.557Z,24.90
2022-09-01T14:30:21.280Z,24.90
2022-09-01T14:32:49.762Z,24.90
2022-09-01T14:35:18.987Z,24.90
2022-09-01T14:37:47.642Z,24.90
2022-09-01T14:40:18.412Z,24.90
2022-09-01T14:42:49.252Z,24.80
2022-09-01T14:45:19.905Z,24.80
2022-09-01T14:47:48.569Z,24.80
2022-09-01T14:50:20.060Z,24.80
2022-09-01T14:52:53.835Z,24.80
2022-09-01T14:55:26.120Z,24.70
2022-09-01T14:57:54.662Z,24.70
2022-09-01T15:00:25.146Z,24.70
2022-09-01T15:02:54.428Z,24.70
2022-09-01T15:05:22.474Z,24.80
2022-09-01T15:07:49.806Z,24.70
2022-09-01T15:10:24.777Z,24.70
2022-09-01T15:12:54.688Z,24.70
2022-09-01T15:15:22.535Z,24.70
2022-09-01T15:17:49.821Z,24.70
2022-09-01T15:20:35.402Z,24.80
2022-09-01T15:23:02.899Z,24.80
2022-09-01T15:25:29.922Z,24.70
2022-09-01T15:27:57.064Z,24.70
2022-09-01T15:30:24.069Z,24.70
2022-09-01T15:32:53.193Z,24.70
2022-09-01T15:35:21.396Z,24.70
2022-09-01T15:37:49.526Z,24.70
2022-09-01T15:40:17.599Z,24.60
2022-09-01T15:42:45.287Z,24.60
2022-09-01T15:45:16.110Z,24.60
2022-09-01T15:47:45.593Z,24.60
2022-09-01T15:50:21.659Z,24.60
2022-09-01T15:52:59.713Z,24.50
2022-09-01T15:55:30.400Z,24.50
2022-09-01T15:57:58.983Z,24.50
2022-09-01T16:00:27.720Z,24.50
2022-09-01T16:02:56.669Z,24.40
2022-09-01T16:05:25.390Z,24.40
2022-09-01T16:07:53.831Z,24.40
2022-09-01T16:10:21.884Z,24.40
2022-09-01T16:12:51.883Z,24.30
2022-09-01T16:15:23.053Z,24.30
2022-09-01T16:18:23.804Z,24.30
2022-09-01T16:20:50.905Z,24.30
2022-09-01T16:23:21.719Z,24.20
2022-09-01T16:25:49.250Z,24.20
2022-09-01T16:28:35.875Z,24.10
2022-09-01T16:31:05.999Z,24.10
2022-09-01T16:33:34.349Z,24.10
2022-09-01T16:36:18.313Z,24.00
2022-09-01T16:38:53.357Z,24.00
2022-09-01T16:41:44.763Z,24.00
2022-09-01T16:44:35.966Z,24.00
2022-09-01T16:47:12.129Z,24.00
2022-09-01T16:49:56.866Z,23.90
2022-09-01T16:52:31.735Z,23.90
2022-09-01T16:55:05.298Z,23.90
2022-09-01T16:57:41.811Z,23.90
2022-09-01T17:00:14.643Z,23.90
2022-09-01T17:03:00.665Z,23.90
2022-09-01T17:05:43.617Z,23.90
2022-09-01T17:08:29.638Z,23.90
2022-09-01T17:11:18.706Z,23.80
2022-09-01T17:13:55.915Z,23.80
2022-09-01T17:16:38.406Z,23.80
2022-09-01T17:19:10.615Z,23.80
2022-09-01T17:21:53.934Z,23.80
2022-09-01T17:24:39.342Z,23.80
2022-09-01T17:27:14.773Z,23.70
2022-09-01T17:29:51.914Z,23.70
2022-09-01T17:33:05.059Z,23.70
2022-09-01T17:35:58.653Z,23.70
2022-09-01T17:38:38.196Z,23.70
2022-09-01T17:41:34.808Z,23.70
2022-09-01T17:44:03.000Z,23.60
2022-09-01T17:46:55.290Z,23.60
2022-09-01T17:49:28.978Z,23.50
2022-09-01T17:52:28.560Z,23.50
2022-09-01T17:55:18.916Z,23.40
2022-09-01T17:58:06.579Z,23.40
2022-09-01T18:00:52.829Z,23.30
2022-09-01T18:03:29.872Z,23.20
2022-09-01T18:06:04.543Z,23.20
2022-09-01T18:08:48.129Z,23.10
2022-09-01T18:11:21.493Z,23.10
2022-09-01T18:14:07.498Z,23.00
2022-09-01T18:16:57.470Z,22.90
2022-09-01T18:19:32.432Z,22.80
2022-09-01T18:22:25.830Z,22.80
2022-09-01T18:25:07.413Z,22.70
2022-09-01T18:27:35.904Z,22.60
2022-09-01T18:30:03.106Z,22.60
2022-09-01T18:32:41.615Z,22.50
2022-09-01T18:35:27.258Z,22.40
2022-09-01T18:38:12.938Z,22.40
2022-09-01T18:41:04.654Z,22.30
2022-09-01T18:43:43.080Z,22.20
2022-09-01T18:46:33.493Z,22.10
2022-09-01T18:49:28.832Z,22.00
2022-09-01T18:52:21.109Z,22.00
2022-09-01T18:55:04.262Z,21.90
2022-09-01T18:57:37.507Z,21.80
2022-09-01T19:00:17.765Z,21.80
2022-09-01T19:03:24.568Z,21.70
2022-09-01T19:06:17.448Z,21.70
2022-09-01T19:09:25.921Z,21.60
2022-09-01T19:12:06.315Z,21.50
2022-09-01T19:14:52.812Z,21.40
2022-09-01T19:17:44.676Z,21.40
2022-09-01T19:20:23.450Z,21.40
2022-09-01T19:22:56.700Z,21.30
2022-09-01T19:25:34.303Z,21.20
2022-09-01T19:28:25.390Z,21.20
2022-09-01T19:31:16.123Z,21.10
2022-09-01T19:33:47.704Z,21.10
2022-09-01T19:36:31.162Z,21.00
2022-09-01T19:38:58.919Z,21.00
2022-09-01T19:41:33.192Z,20.90
2022-09-01T19:44:23.929Z,20.80
2022-09-01T19:47:03.050Z,20.80
2022-09-01T19:49:55.386Z,20.80
2022-09-01T19:52:40.671Z,20.70
2022-09-01T19:55:11.164Z,20.70
2022-09-01T19:57:56.479Z,20.60
2022-09-01T20:00:39.188Z,20.60
2022-09-01T20:03:18.780Z,20.50
2022-09-01T20:05:57.181Z,20.50
2022-09-01T20:08:37.850Z,20.40
2022-09-01T20:11:45.145Z,20.40
2022-09-01T20:14:39.138Z,20.30
2022-09-01T20:17:09.343Z,20.30
2022-09-01T20:20:00.960Z,20.20
2022-09-01T20:22:31.187Z,20.20
2022-09-01T20:25:09.847Z,20.10
2022-09-01T20:28:00.151Z,20.10
2022-09-01T20:30:37.186Z,20.00
2022-09-01T20:33:28.557Z,20.00
2022-09-01T20:36:08.914Z,20.00
2022-09-01T20:39:03.979Z,19.90
2022-09-01T20:41:39.623Z,19.90
2022-09-01T20:44:15.772Z,19.80
2022-09-01T20:46:43.000Z,19.80
2022-09-01T20:49:16.053Z,19.70
2022-09-01T20:52:08.526Z,19.70
2022-09-01T20:54:56.109Z,19.60
2022-09-01T20:57:52.185Z,19.60
2022-09-01T21:00:26.118Z,19.60
2022-09-01T21:03:17.796Z,19.50
2022-09-01T21:06:01.933Z,19.50
2022-09-01T21:08:43.533Z,19.40
2022-09-01T21:11:28.082Z,19.40
2022-09-01T21:14:22.885Z,19.40
2022-09-01T21:17:10.754Z,19.40
2022-09-01T21:19:59.086Z,19.30
2022-09-01T21:22:28.517Z,19.20
2022-09-01T21:24:56.235Z,19.20
2022-09-01T21:27:27.176Z,19.20
2022-09-01T21:29:56.742Z,19.10
2022-09-01T21:32:23.999Z,19.10
2022-09-01T21:34:53.328Z,19.10
2022-09-01T21:37:22.609Z,19.00
2022-09-01T21:39:53.635Z,19.00
2022-09-01T21:42:32.864Z,18.90
2022-09-01T21:45:02.424Z,18.90
2022-09-01T21:47:31.255Z,18.90
2022-09-01T21:49:59.014Z,18.90
2022-09-01T21:52:26.785Z,18.80
2022-09-01T21:54:53.959Z,18.80
2022-09-01T21:57:23.111Z,18.80
2022-09-01T21:59:51.869Z,18.80
2022-09-01T22:02:20.623Z,18.70
2022-09-01T22:04:56.035Z,18.60
2022-09-01T22:07:24.365Z,18.60
2022-09-01T22:09:52.043Z,18.60
2022-09-01T22:12:19.418Z,18.60
2022-09-01T22:14:46.712Z,18.50
2022-09-01T22:17:13.803Z,18.50
2022-09-01T22:19:41.662Z,18.50
2022-09-01T22:22:11.998Z,18.40
2022-09-01T22:24:39.115Z,18.40
2022-09-01T22:27:06.130Z,18.40
2022-09-01T22:29:33.187Z,18.40
2022-09-01T22:32:00.576Z,18.30
2022-09-01T22:34:27.568Z,18.30
2022-09-01T22:36:54.667Z,18.30
2022-09-01T22:39:22.437Z,18.30
2022-09-01T22:41:53.098Z,18.20
2022-09-01T22:44:20.739Z,18.20
2022-09-01T22:46:48.108Z,18.20
2022-09-01T22:49:15.207Z,18.10
2022-09-01T22:51:43.172Z,18.10
2022-09-01T22:54:11.755Z,18.10
2022-09-01T22:56:41.007Z,18.10
2022-09-01T22:59:11.759Z,18.00
2022-09-01T23:01:42.909Z,18.00
2022-09-01T23:04:12.575Z,18.00
2022-09-01T23:06:43.339Z,17.90
2022-09-01T23:09:10.870Z,17.90
2022-09-01T23:11:38.247Z,17.90
2022-09-01T23:14:06.732Z,17.90
2022-09-01T23:16:34.666Z,17.90
2022-09-01T23:19:02.556Z,17.80
2022-09-01T23:21:33.226Z,17.80
2022-09-01T23:24:01.276Z,17.80
2022-09-01T23:26:30.556Z,17.70
2022-09-01T23:28:59.280Z,17.70
2022-09-01T23:31:30.189Z,17.70
2022-09-01T23:33:57.671Z,17.60
2022-09-01T23:36:27.206Z,17.70
2022-09-01T23:38:54.743Z,17.60
2022-09-01T23:41:29.993Z,17.60
2022-09-01T23:44:01.470Z,17.60
2022-09-01T23:46:34.539Z,17.60
2022-09-01T23:49:02.632Z,17.60
2022-09-01T23:51:29.741Z,17.60
2022-09-01T23:53:57.283Z,17.60
2022-09-01T23:56:26.248Z,17.50
2022-09-01T23:58:53.540Z,17.50
